Terminal Aerodrome Forecast
Issued by NWS

Home | Current Version | Previous Version | Text Only | Print | Product List | Glossary On
Versions: 1 2 3 4 5 6 7 8 9 10 11 12 13 14 15 16 17 18 19
000
FTUS45 KSLC 152331
TAFOGD
TAF
KOGD 152331Z 1600/1624 31004KT P6SM BKN180
     FM160300 17006KT P6SM SCT070 BKN110
     FM161000 30005KT P6SM VCSH SCT030 BKN060
     FM161300 33006KT 2SM -SN SCT009 BKN016
     FM161900 33011KT P6SM VCSH BKN025=

USA.gov is the U.S. government's official web portal to all federal, state and local government web resources and services.